createdAt,value
2024-05-09T00:00:46.624Z,10.44
2024-05-09T00:03:14.426Z,10.41
2024-05-09T00:05:44.065Z,10.36
2024-05-09T00:08:12.323Z,10.34
2024-05-09T00:10:40.989Z,10.33
2024-05-09T00:13:10.746Z,10.27
2024-05-09T00:15:39.072Z,10.28
2024-05-09T00:18:07.762Z,10.25
2024-05-09T00:20:39.575Z,10.28
2024-05-09T00:23:13.736Z,10.24
2024-05-09T00:25:43.696Z,10.21
2024-05-09T00:28:12.521Z,10.18
2024-05-09T00:30:40.299Z,10.17
2024-05-09T00:33:10.128Z,10.22
2024-05-09T00:35:39.357Z,10.25
2024-05-09T00:38:07.158Z,10.20
2024-05-09T00:40:40.182Z,10.21
2024-05-09T00:43:11.391Z,10.13
2024-05-09T00:45:39.362Z,10.16
2024-05-09T00:48:09.543Z,10.14
2024-05-09T00:50:41.680Z,10.14
2024-05-09T00:53:12.656Z,10.15
2024-05-09T00:55:41.740Z,10.16
2024-05-09T00:58:12.647Z,10.13
2024-05-09T01:00:41.752Z,10.11
2024-05-09T01:03:12.364Z,10.14
2024-05-09T01:05:42.230Z,10.18
2024-05-09T01:08:11.005Z,10.21
2024-05-09T01:10:40.304Z,10.23
2024-05-09T01:13:09.319Z,10.26
2024-05-09T01:15:36.771Z,10.30
2024-05-09T01:18:14.315Z,10.31
2024-05-09T01:20:44.350Z,10.32
2024-05-09T01:23:15.041Z,10.35
2024-05-09T01:25:45.665Z,10.36
2024-05-09T01:28:14.202Z,10.35
2024-05-09T01:30:41.751Z,10.36
2024-05-09T01:33:11.333Z,10.37
2024-05-09T01:35:42.264Z,10.37
2024-05-09T01:38:14.280Z,10.36
2024-05-09T01:40:42.674Z,10.38
2024-05-09T01:43:11.517Z,10.39
2024-05-09T01:45:41.031Z,10.43
2024-05-09T01:48:10.314Z,10.48
2024-05-09T01:50:41.566Z,10.49
2024-05-09T01:53:13.093Z,10.52
2024-05-09T01:55:41.540Z,10.53
2024-05-09T01:58:09.821Z,10.58
2024-05-09T02:00:41.354Z,10.59
2024-05-09T02:03:15.592Z,10.62
2024-05-09T02:05:52.364Z,10.64
2024-05-09T02:08:22.136Z,10.67
2024-05-09T02:10:50.990Z,10.66
2024-05-09T02:13:18.823Z,10.72
2024-05-09T02:15:46.323Z,10.74
2024-05-09T02:18:14.378Z,10.75
2024-05-09T02:20:43.366Z,10.77
2024-05-09T02:23:11.863Z,10.76
2024-05-09T02:25:40.023Z,10.82
2024-05-09T02:28:08.026Z,10.84
2024-05-09T02:30:40.004Z,10.84
2024-05-09T02:33:12.256Z,10.87
2024-05-09T02:35:42.804Z,10.86
2024-05-09T02:38:11.278Z,10.84
2024-05-09T02:40:40.046Z,10.91
2024-05-09T02:43:10.816Z,10.90
2024-05-09T02:45:42.614Z,10.98
2024-05-09T02:48:14.016Z,11.03
2024-05-09T02:50:42.363Z,11.07
2024-05-09T02:53:13.845Z,11.09
2024-05-09T02:55:43.036Z,11.08
2024-05-09T02:58:11.449Z,11.09
2024-05-09T03:00:41.731Z,11.08
2024-05-09T03:03:13.456Z,11.15
2024-05-09T03:05:46.496Z,11.15
2024-05-09T03:08:14.543Z,11.18
2024-05-09T03:10:42.367Z,11.14
2024-05-09T03:13:14.446Z,11.11
2024-05-09T03:15:43.712Z,11.14
2024-05-09T03:18:12.321Z,11.19
2024-05-09T03:20:40.500Z,11.24
2024-05-09T03:23:09.850Z,11.20
2024-05-09T03:25:38.873Z,11.24
2024-05-09T03:28:07.157Z,11.29
2024-05-09T03:30:41.019Z,11.33
2024-05-09T03:33:13.480Z,11.38
2024-05-09T03:35:42.053Z,11.40
2024-05-09T03:38:09.944Z,11.42
2024-05-09T03:40:44.086Z,11.50
2024-05-09T03:43:11.570Z,11.52
2024-05-09T03:45:38.931Z,11.52
2024-05-09T03:48:07.088Z,11.57
2024-05-09T03:50:36.321Z,11.60
2024-05-09T03:53:05.162Z,11.60
2024-05-09T03:55:32.780Z,11.61
2024-05-09T03:58:00.383Z,11.67
2024-05-09T04:00:35.590Z,11.72
2024-05-09T04:03:09.725Z,11.80
2024-05-09T04:05:44.619Z,11.83
2024-05-09T04:08:12.602Z,11.87
2024-05-09T04:10:40.564Z,11.88
2024-05-09T04:13:08.196Z,11.85
2024-05-09T04:15:35.654Z,11.91
2024-05-09T04:18:03.311Z,11.96
2024-05-09T04:20:38.325Z,12.03
2024-05-09T04:23:12.648Z,12.07
2024-05-09T04:25:45.800Z,12.06
2024-05-09T04:28:14.452Z,12.06
2024-05-09T04:30:42.670Z,12.07
2024-05-09T04:33:12.937Z,12.05
2024-05-09T04:35:43.717Z,12.02
2024-05-09T04:38:12.391Z,12.02
2024-05-09T04:40:39.994Z,12.03
2024-05-09T04:43:13.919Z,12.04
2024-05-09T04:45:41.838Z,12.07
2024-05-09T04:48:09.663Z,12.08
2024-05-09T04:50:39.415Z,12.10
2024-05-09T04:53:15.212Z,12.02
2024-05-09T04:55:42.920Z,12.01
2024-05-09T04:58:11.809Z,12.03
2024-05-09T05:00:40.936Z,12.07
2024-05-09T05:03:13.460Z,12.13
2024-05-09T05:05:44.488Z,12.17
2024-05-09T05:08:18.604Z,12.17
2024-05-09T05:10:48.108Z,12.15
2024-05-09T05:13:18.364Z,12.17
2024-05-09T05:15:52.221Z,12.22
2024-05-09T05:18:20.117Z,12.28
2024-05-09T05:20:48.111Z,12.35
2024-05-09T05:23:20.181Z,12.39
2024-05-09T05:25:50.199Z,12.39
2024-05-09T05:28:18.911Z,12.45
2024-05-09T05:30:47.065Z,12.51
2024-05-09T05:33:16.250Z,12.58
2024-05-09T05:35:44.162Z,12.60
2024-05-09T05:38:12.133Z,12.58
2024-05-09T05:40:40.735Z,12.63
2024-05-09T05:43:15.964Z,12.66
2024-05-09T05:45:43.376Z,12.73
2024-05-09T05:48:11.019Z,12.73
2024-05-09T05:50:39.024Z,12.74
2024-05-09T05:53:10.803Z,12.77
2024-05-09T05:55:40.670Z,12.76
2024-05-09T05:58:12.724Z,12.65
2024-05-09T06:00:42.379Z,12.72
2024-05-09T06:03:12.009Z,12.74
2024-05-09T06:05:40.694Z,12.79
2024-05-09T06:08:09.386Z,12.81
2024-05-09T06:10:39.833Z,12.84
2024-05-09T06:13:13.140Z,12.90
2024-05-09T06:15:41.797Z,12.95
2024-05-09T06:18:11.259Z,12.98
2024-05-09T06:20:41.896Z,13.02
2024-05-09T06:23:10.972Z,13.07
2024-05-09T06:25:39.254Z,13.01
2024-05-09T06:28:07.118Z,12.88
2024-05-09T06:30:42.431Z,12.98
2024-05-09T06:33:13.906Z,13.02
2024-05-09T06:35:43.895Z,13.06
2024-05-09T06:38:12.193Z,13.13
2024-05-09T06:40:43.142Z,12.97
2024-05-09T06:43:17.971Z,13.11
2024-05-09T06:45:52.848Z,13.15
2024-05-09T06:48:22.311Z,13.30
2024-05-09T06:50:52.872Z,13.37
2024-05-09T06:53:23.851Z,13.39
2024-05-09T06:55:51.631Z,13.40
2024-05-09T06:58:19.196Z,13.38
2024-05-09T07:00:47.028Z,13.29
2024-05-09T07:03:18.195Z,13.38
2024-05-09T07:05:49.155Z,13.48
2024-05-09T07:08:18.240Z,13.42
2024-05-09T07:10:46.250Z,13.48
2024-05-09T07:13:15.669Z,13.57
2024-05-09T07:15:44.001Z,13.56
2024-05-09T07:18:18.444Z,13.64
2024-05-09T07:20:50.811Z,13.71
2024-05-09T07:23:19.068Z,13.71
2024-05-09T07:25:46.928Z,13.74
2024-05-09T07:28:17.460Z,13.70
2024-05-09T07:30:45.361Z,13.76
2024-05-09T07:33:22.603Z,13.85
2024-05-09T07:35:52.042Z,13.97
2024-05-09T07:38:19.667Z,13.96
2024-05-09T07:40:47.307Z,13.95
2024-05-09T07:43:16.234Z,14.04
2024-05-09T07:45:51.841Z,14.02
2024-05-09T07:52:38.618Z,14.30
2024-05-09T07:53:47.372Z,14.27
2024-05-09T07:56:19.926Z,14.40
2024-05-09T07:58:51.770Z,14.50
2024-05-09T08:01:20.325Z,14.48
2024-05-09T08:03:48.390Z,14.57
2024-05-09T08:06:15.932Z,14.65
2024-05-09T08:08:43.348Z,14.67
2024-05-09T08:11:10.874Z,14.72
2024-05-09T08:13:38.367Z,14.79
2024-05-09T08:16:06.810Z,14.90
2024-05-09T08:18:34.456Z,14.87
2024-05-09T08:21:02.280Z,14.95
2024-05-09T08:23:29.817Z,14.99
2024-05-09T08:25:57.631Z,15.09
2024-05-09T08:28:25.067Z,15.23
2024-05-09T08:30:52.885Z,15.29
2024-05-09T08:33:20.618Z,15.22
2024-05-09T08:35:48.134Z,15.23
2024-05-09T08:38:15.637Z,15.24
2024-05-09T08:40:43.378Z,15.22
2024-05-09T08:43:12.482Z,15.27
2024-05-09T08:45:45.168Z,15.27
2024-05-09T08:48:15.756Z,15.42
2024-05-09T08:50:45.391Z,15.43
2024-05-09T08:53:15.212Z,15.40
2024-05-09T08:55:44.239Z,15.46
2024-05-09T08:58:21.619Z,15.49
2024-05-09T09:00:49.833Z,15.52
2024-05-09T09:03:26.974Z,15.59
2024-05-09T09:06:16.815Z,15.56
2024-05-09T09:08:46.004Z,15.53
2024-05-09T09:11:13.607Z,15.64
2024-05-09T09:13:41.097Z,15.74
2024-05-09T09:16:09.086Z,15.86
2024-05-09T09:18:36.807Z,15.84
2024-05-09T09:21:04.902Z,15.79
2024-05-09T09:23:33.143Z,15.91
2024-05-09T09:26:01.494Z,15.96
2024-05-09T09:28:30.119Z,15.99
2024-05-09T09:31:05.024Z,16.15
2024-05-09T09:33:35.713Z,16.19
2024-05-09T09:36:05.820Z,16.23
2024-05-09T09:38:37.972Z,16.31
2024-05-09T09:41:10.825Z,16.33
2024-05-09T09:43:40.443Z,16.35
2024-05-09T09:46:12.438Z,16.26
2024-05-09T09:48:41.331Z,16.43
2024-05-09T09:51:09.372Z,16.49
2024-05-09T09:53:38.530Z,16.43
2024-05-09T09:56:08.348Z,16.52
2024-05-09T09:58:37.009Z,16.61
2024-05-09T10:01:04.925Z,16.69
2024-05-09T10:03:33.301Z,16.71
2024-05-09T10:06:01.689Z,16.81
2024-05-09T10:08:29.878Z,16.90
2024-05-09T10:10:57.758Z,16.93
2024-05-09T10:13:34.973Z,16.98
2024-05-09T10:16:12.300Z,17.10
2024-05-09T10:18:41.881Z,17.13
2024-05-09T10:21:20.504Z,17.14
2024-05-09T10:24:04.839Z,17.14
2024-05-09T10:26:33.287Z,17.21
2024-05-09T10:29:03.545Z,17.26
2024-05-09T10:31:31.415Z,17.27
2024-05-09T10:34:02.670Z,17.33
2024-05-09T10:36:30.418Z,17.46
2024-05-09T10:38:58.008Z,17.63
2024-05-09T10:41:25.620Z,17.70
2024-05-09T10:43:53.172Z,17.77
2024-05-09T10:46:20.914Z,17.76
2024-05-09T10:48:49.060Z,17.87
2024-05-09T10:51:21.986Z,17.82
2024-05-09T10:53:49.435Z,17.89
2024-05-09T10:56:17.634Z,17.81
2024-05-09T10:58:45.377Z,17.96
2024-05-09T11:01:14.095Z,17.98
2024-05-09T11:03:42.463Z,17.85
2024-05-09T11:06:11.963Z,17.84
2024-05-09T11:08:40.175Z,17.93
2024-05-09T11:11:08.843Z,17.97
2024-05-09T11:13:40.997Z,17.94
2024-05-09T11:16:21.061Z,18.01
2024-05-09T11:18:57.312Z,18.09
2024-05-09T11:21:25.981Z,18.26
2024-05-09T11:23:53.948Z,18.20
2024-05-09T11:26:22.451Z,18.30
2024-05-09T11:28:51.042Z,18.30
2024-05-09T11:31:19.066Z,18.24
2024-05-09T11:33:47.180Z,18.21
2024-05-09T11:36:15.700Z,18.42
2024-05-09T11:38:43.535Z,18.71
2024-05-09T11:41:21.059Z,18.92
2024-05-09T11:43:48.537Z,19.12
2024-05-09T11:46:16.629Z,19.01
2024-05-09T11:48:44.492Z,18.88
2024-05-09T11:51:12.020Z,18.85
2024-05-09T11:53:39.487Z,18.97
2024-05-09T11:56:07.312Z,19.12
2024-05-09T11:58:37.075Z,19.28
2024-05-09T12:01:04.808Z,19.28
2024-05-09T12:03:32.656Z,19.57
2024-05-09T12:06:00.734Z,19.51
2024-05-09T12:08:28.616Z,19.50
2024-05-09T12:10:56.777Z,19.61
2024-05-09T12:13:24.683Z,19.74
2024-05-09T12:15:52.312Z,19.80
2024-05-09T12:18:19.906Z,19.88
2024-05-09T12:20:47.326Z,19.80
2024-05-09T12:23:15.248Z,19.76
2024-05-09T12:25:42.863Z,19.70
2024-05-09T12:28:10.574Z,19.91
2024-05-09T12:30:40.399Z,19.99
2024-05-09T12:33:13.528Z,20.27
2024-05-09T12:35:44.383Z,20.48
2024-05-09T12:38:15.436Z,20.41
2024-05-09T12:40:43.580Z,20.45
2024-05-09T12:43:11.775Z,20.61
2024-05-09T12:45:40.747Z,20.84
2024-05-09T12:48:12.452Z,21.07
2024-05-09T12:50:42.083Z,21.29
2024-05-09T12:53:10.170Z,21.08
2024-05-09T12:55:45.109Z,21.18
2024-05-09T12:58:24.710Z,21.39
2024-05-09T13:00:53.090Z,21.54
2024-05-09T13:03:21.437Z,21.48
2024-05-09T13:05:50.862Z,21.22
2024-05-09T13:08:18.639Z,21.43
2024-05-09T13:10:46.468Z,21.62
2024-05-09T13:13:14.199Z,21.77
2024-05-09T13:15:42.224Z,21.95
2024-05-09T13:18:10.249Z,22.16
2024-05-09T13:20:38.293Z,22.36
2024-05-09T13:23:08.159Z,22.47
2024-05-09T13:25:37.937Z,22.42
2024-05-09T13:28:07.546Z,22.34
2024-05-09T13:30:40.394Z,22.40
2024-05-09T13:33:14.129Z,22.50
2024-05-09T13:35:49.228Z,22.71
2024-05-09T13:38:22.080Z,22.63
2024-05-09T13:40:50.685Z,22.32
2024-05-09T13:43:19.241Z,22.42
2024-05-09T13:45:47.546Z,22.74
2024-05-09T13:48:15.468Z,22.81
2024-05-09T13:50:43.244Z,23.05
2024-05-09T13:53:10.634Z,23.24
2024-05-09T13:55:39.556Z,23.30
2024-05-09T13:58:08.797Z,23.39
2024-05-09T14:00:45.201Z,23.54
2024-05-09T14:03:19.158Z,23.50
2024-05-09T14:05:50.193Z,23.09
2024-05-09T14:08:20.317Z,23.39
2024-05-09T14:10:49.154Z,23.57
2024-05-09T14:13:17.199Z,23.81
2024-05-09T14:15:45.664Z,24.09
2024-05-09T14:18:14.430Z,24.30
2024-05-09T14:20:43.085Z,24.46
2024-05-09T14:23:10.867Z,24.48
2024-05-09T14:25:42.571Z,24.26
2024-05-09T14:28:12.930Z,24.01
2024-05-09T14:30:41.471Z,23.92
2024-05-09T14:33:09.683Z,23.89
2024-05-09T14:35:38.908Z,23.79
2024-05-09T14:38:08.038Z,23.80
2024-05-09T14:40:42.261Z,23.86
2024-05-09T14:43:15.924Z,24.02
2024-05-09T14:45:45.036Z,24.15
2024-05-09T14:48:15.365Z,24.32
2024-05-09T14:50:43.428Z,24.38
2024-05-09T14:53:12.808Z,24.43
2024-05-09T14:55:42.863Z,24.43
2024-05-09T14:58:12.745Z,24.40
2024-05-09T15:00:46.577Z,24.42
2024-05-09T15:03:18.923Z,24.47
2024-05-09T15:05:48.034Z,24.34
2024-05-09T15:08:18.676Z,24.30
2024-05-09T15:10:47.314Z,24.09
2024-05-09T15:13:16.720Z,23.89
2024-05-09T15:15:45.179Z,23.69
2024-05-09T15:18:16.660Z,23.69
2024-05-09T15:20:45.325Z,23.72
2024-05-09T15:23:13.553Z,23.58
2024-05-09T15:25:41.341Z,23.04
2024-05-09T15:28:09.047Z,22.82
2024-05-09T15:30:37.358Z,22.80
2024-05-09T15:33:06.761Z,22.85
2024-05-09T15:35:35.721Z,22.95
2024-05-09T15:38:04.419Z,22.98
2024-05-09T15:40:39.065Z,23.07
2024-05-09T15:43:10.422Z,22.93
2024-05-09T15:45:40.833Z,23.16
2024-05-09T15:48:10.339Z,23.21
2024-05-09T15:50:41.095Z,23.17
2024-05-09T15:53:12.070Z,23.35
2024-05-09T15:55:40.467Z,23.48
2024-05-09T15:58:08.535Z,23.51
2024-05-09T16:00:39.962Z,23.69
2024-05-09T16:03:12.040Z,23.98
2024-05-09T16:05:41.301Z,24.05
2024-05-09T16:08:09.495Z,23.97
2024-05-09T16:10:43.530Z,24.00
2024-05-09T16:13:12.453Z,24.24
2024-05-09T16:15:40.275Z,24.21
2024-05-09T16:18:08.294Z,24.29
2024-05-09T16:20:40.199Z,24.06
2024-05-09T16:23:10.310Z,24.22
2024-05-09T16:25:39.249Z,24.31
2024-05-09T16:28:10.058Z,24.49
2024-05-09T16:30:41.767Z,24.26
2024-05-09T16:33:11.089Z,24.33
2024-05-09T16:35:39.758Z,25.14
2024-05-09T16:38:07.544Z,26.91
2024-05-09T16:40:39.723Z,28.01
2024-05-09T16:43:13.257Z,29.45
2024-05-09T16:45:44.835Z,30.29
2024-05-09T16:48:14.128Z,28.41
2024-05-09T16:50:41.960Z,26.32
2024-05-09T16:53:09.442Z,28.50
2024-05-09T16:55:37.143Z,29.01
2024-05-09T16:58:06.787Z,28.54
2024-05-09T17:00:40.866Z,26.22
2024-05-09T17:03:14.690Z,24.66
2024-05-09T17:05:44.085Z,23.85
2024-05-09T17:08:11.819Z,23.48
2024-05-09T17:10:39.384Z,23.15
2024-05-09T17:13:08.070Z,22.85
2024-05-09T17:15:37.605Z,22.50
2024-05-09T17:18:07.364Z,21.99
2024-05-09T17:20:37.238Z,21.67
2024-05-09T17:23:15.392Z,21.55
2024-05-09T17:25:43.474Z,21.33
2024-05-09T17:28:11.802Z,21.18
2024-05-09T17:30:41.733Z,21.12
2024-05-09T17:33:11.972Z,21.04
2024-05-09T17:35:40.744Z,20.94
2024-05-09T17:38:08.772Z,20.94
2024-05-09T17:40:38.171Z,20.87
2024-05-09T17:43:09.640Z,20.80
2024-05-09T17:45:40.188Z,20.73
2024-05-09T17:48:12.674Z,20.59
2024-05-09T17:50:41.926Z,20.61
2024-05-09T17:53:10.951Z,20.52
2024-05-09T17:55:39.177Z,20.52
2024-05-09T17:58:07.376Z,20.48
2024-05-09T18:00:39.551Z,20.36
2024-05-09T18:03:11.955Z,20.22
2024-05-09T18:05:41.537Z,20.16
2024-05-09T18:08:09.930Z,20.05
2024-05-09T18:10:39.754Z,20.02
2024-05-09T18:13:13.269Z,19.95
2024-05-09T18:15:41.736Z,19.88
2024-05-09T18:18:10.903Z,19.76
2024-05-09T18:20:43.896Z,19.68
2024-05-09T18:23:17.082Z,19.60
2024-05-09T18:25:46.297Z,19.52
2024-05-09T18:28:14.486Z,19.37
2024-05-09T18:30:42.221Z,19.35
2024-05-09T18:33:11.691Z,19.27
2024-05-09T18:35:41.181Z,19.25
2024-05-09T18:38:09.606Z,19.08
2024-05-09T18:40:38.535Z,19.02
2024-05-09T18:43:08.899Z,19.02
2024-05-09T18:45:40.099Z,18.94
2024-05-09T18:48:10.251Z,18.84
2024-05-09T18:50:40.503Z,18.68
2024-05-09T18:53:13.397Z,18.64
2024-05-09T18:55:42.742Z,18.60
2024-05-09T18:58:10.513Z,18.55
2024-05-09T19:00:41.116Z,18.52
2024-05-09T19:03:12.858Z,18.44
2024-05-09T19:05:43.980Z,18.41
2024-05-09T19:08:12.815Z,18.38
2024-05-09T19:10:40.683Z,18.36
2024-05-09T19:13:12.360Z,18.28
2024-05-09T19:15:42.560Z,18.22
2024-05-09T19:18:12.637Z,18.22
2024-05-09T19:20:40.602Z,18.13
2024-05-09T19:23:08.053Z,18.11
2024-05-09T19:25:36.472Z,18.05
2024-05-09T19:28:05.658Z,17.98
2024-05-09T19:30:39.124Z,17.92
2024-05-09T19:33:12.386Z,17.82
2024-05-09T19:35:41.231Z,17.81
2024-05-09T19:38:08.906Z,17.79
2024-05-09T19:40:36.834Z,17.76
2024-05-09T19:43:06.113Z,17.72
2024-05-09T19:45:35.738Z,17.67
2024-05-09T19:48:05.494Z,17.63
2024-05-09T19:50:41.309Z,17.57
2024-05-09T19:53:12.740Z,17.52
2024-05-09T19:55:41.380Z,17.45
2024-05-09T19:58:10.026Z,17.45
2024-05-09T20:00:41.225Z,17.42
2024-05-09T20:03:12.438Z,17.41
2024-05-09T20:05:41.769Z,17.39
2024-05-09T20:08:09.306Z,17.33
2024-05-09T20:10:37.554Z,17.27
2024-05-09T20:13:07.701Z,17.23
2024-05-09T20:15:37.929Z,17.17
2024-05-09T20:18:06.791Z,17.17
2024-05-09T20:20:39.682Z,17.18
2024-05-09T20:23:13.845Z,17.23
2024-05-09T20:25:42.625Z,17.23
2024-05-09T20:28:10.766Z,17.21
2024-05-09T20:30:38.671Z,17.24
2024-05-09T20:33:08.043Z,17.23
2024-05-09T20:35:36.823Z,17.23
2024-05-09T20:38:04.969Z,17.25
2024-05-09T20:40:36.783Z,17.25
2024-05-09T20:43:07.984Z,17.24
2024-05-09T20:45:36.267Z,17.23
2024-05-09T20:48:04.368Z,17.18
2024-05-09T20:50:38.027Z,17.18
2024-05-09T20:53:13.957Z,17.14
2024-05-09T20:55:43.463Z,17.05
2024-05-09T20:58:11.448Z,17.05
2024-05-09T21:00:42.829Z,17.03
2024-05-09T21:03:16.252Z,16.99
2024-05-09T21:05:44.992Z,16.94
2024-05-09T21:08:12.736Z,16.96
2024-05-09T21:10:40.371Z,16.95
2024-05-09T21:13:08.285Z,16.95
2024-05-09T21:15:36.448Z,16.86
2024-05-09T21:18:04.951Z,16.94
2024-05-09T21:20:34.954Z,16.91
2024-05-09T21:23:03.631Z,16.84
2024-05-09T21:25:32.206Z,16.80
2024-05-09T21:28:00.461Z,16.79
2024-05-09T21:30:37.890Z,16.72
2024-05-09T21:33:11.374Z,16.69
2024-05-09T21:35:41.313Z,16.69
2024-05-09T21:38:08.925Z,16.69
2024-05-09T21:40:38.032Z,16.67
2024-05-09T21:43:08.357Z,16.66
2024-05-09T21:45:37.276Z,16.69
2024-05-09T21:48:06.411Z,16.67
2024-05-09T21:50:40.248Z,16.63
2024-05-09T21:53:11.551Z,16.61
2024-05-09T21:55:39.450Z,16.61
2024-05-09T21:58:07.033Z,16.60
2024-05-09T22:00:38.317Z,16.58
2024-05-09T22:03:09.007Z,16.53
2024-05-09T22:05:38.357Z,16.48
2024-05-09T22:08:06.559Z,16.36
2024-05-09T22:10:36.164Z,16.39
2024-05-09T22:13:08.693Z,16.37
2024-05-09T22:15:39.337Z,16.40
2024-05-09T22:18:09.722Z,16.39
2024-05-09T22:20:45.096Z,16.31
2024-05-09T22:23:14.881Z,16.29
2024-05-09T22:25:42.667Z,16.24
2024-05-09T22:28:10.263Z,16.23
2024-05-09T22:30:39.855Z,16.20
2024-05-09T22:33:12.144Z,16.15
2024-05-09T22:35:41.247Z,16.10
2024-05-09T22:38:09.161Z,16.10
2024-05-09T22:40:45.497Z,16.03
2024-05-09T22:43:24.725Z,15.99
2024-05-09T22:45:55.919Z,15.96
2024-05-09T22:48:25.311Z,15.99
2024-05-09T22:50:54.963Z,15.97
2024-05-09T22:53:25.429Z,15.95
2024-05-09T22:55:53.279Z,15.96
2024-05-09T22:58:21.081Z,15.92
2024-05-09T23:00:48.807Z,15.92
2024-05-09T23:03:16.874Z,15.91
2024-05-09T23:05:44.610Z,15.87
2024-05-09T23:08:12.100Z,15.87
2024-05-09T23:10:39.589Z,15.84
2024-05-09T23:13:10.138Z,15.83
2024-05-09T23:15:38.912Z,15.85
2024-05-09T23:18:07.374Z,15.87
2024-05-09T23:20:38.650Z,15.91
2024-05-09T23:23:11.859Z,15.93
2024-05-09T23:25:41.856Z,15.92
2024-05-09T23:28:10.477Z,15.95
2024-05-09T23:30:40.430Z,15.97
2024-05-09T23:33:12.661Z,15.98
2024-05-09T23:35:44.415Z,15.97
2024-05-09T23:38:12.750Z,15.99
2024-05-09T23:40:41.709Z,16.00
2024-05-09T23:43:11.627Z,15.96
2024-05-09T23:45:40.081Z,15.97
2024-05-09T23:48:08.283Z,15.93
2024-05-09T23:50:38.338Z,15.93
2024-05-09T23:53:09.072Z,15.88
2024-05-09T23:55:37.806Z,15.94
2024-05-09T23:58:06.717Z,15.94
